Time;durP1;ratioP1;P1;durP2;ratioP2;P2;SDS_P1;SDS_P2;PMS_P1;PMS_P2;Temp;Humidity;BMP_temperature;BMP_pressure;BME280_temperature;BME280_humidity;BME280_pressure;Samples;Min_cycle;Max_cycle;Signal;HPM_P1;HPM_P2
2021/11/24 00:00:23;;;;;;;;;;;;;;;;;;5057929;28;19931;-66
2021/11/24 00:02:54;;;;;;;;;;;;;;;;;;5052540;28;19986;-66
2021/11/24 00:05:24;;;;;;;;;;;;;;;;;;5045065;28;19937;-66
2021/11/24 00:07:52;;;;;;;;;;;;;;;;;;5043285;28;19933;-66
2021/11/24 00:10:20;;;;;;;;;;;;;;;;;;5047095;28;19925;-67
2021/11/24 00:12:49;;;;;;;;;;;;;;;;;;5049620;28;20593;-66
2021/11/24 00:15:18;;;;;;;;;;;;;;;;;;5047213;28;19930;-67
2021/11/24 00:17:45;;;;;;;;;;;;;;;;;;5053160;28;19946;-66
2021/11/24 00:20:15;;;;;;;;;;;;;;;;;;5037334;28;19936;-65
2021/11/24 00:22:46;;;;;;;;;;;;;;;;;;5043509;28;20318;-66
2021/11/24 00:25:16;;;;;;;;;;;;;;;;;;5042242;28;19925;-66
2021/11/24 00:27:47;;;;;;;;;;;;;;;;;;5046702;28;19932;-66
2021/11/24 00:30:18;;;;;;;;;;;;;;;;;;5043134;28;20483;-65
2021/11/24 00:32:45;;;;;;;;;;;;;;;;;;5046286;28;19932;-66
2021/11/24 00:35:15;;;;;;;;;;;;;;;;;;5034109;28;19947;-66
2021/11/24 00:37:42;;;;;;;;;;;;;;;;;;5044497;28;19932;-66
2021/11/24 00:40:11;;;;;;;;;;;;;;;;;;5045165;28;19929;-66
2021/11/24 00:42:41;;;;;;;;;;;;;;;;;;5047560;28;19925;-66
2021/11/24 00:45:11;;;;;;;;;;;;;;;;;;5032564;28;19925;-66
2021/11/24 00:47:41;;;;;;;;;;;;;;;;;;5045702;28;20353;-65
2021/11/24 00:50:12;;;;;;;;;;;;;;;;;;5029826;28;20349;-65
2021/11/24 00:52:42;;;;;;;;;;;;;;;;;;5047324;28;19947;-66
2021/11/24 00:55:12;;;;;;;;;;;;;;;;;;5037331;28;19932;-66
2021/11/24 00:57:42;;;;;;;;;;;;;;;;;;5044589;28;19925;-66
2021/11/24 01:00:16;;;;;;;;;;;;;;;;;;5039194;28;20560;-68
2021/11/24 01:02:44;;;;;;;;;;;;;;;;;;5042847;28;19925;-66
2021/11/24 01:05:15;;;;;;;;;;;;;;;;;;5030793;28;19933;-67
2021/11/24 01:07:45;;;;;;;;;;;;;;;;;;5040093;28;20273;-66
2021/11/24 01:10:13;;;;;;;;;;;;;;;;;;5039132;28;20411;-66
2021/11/24 01:12:41;;;;;;;;;;;;;;;;;;5046510;28;20334;-66
2021/11/24 01:15:10;;;;;;;;;;;;;;;;;;5044577;28;19933;-66
2021/11/24 01:17:41;;;;;;;;;;;;;;;;;;5039870;28;19925;-67
2021/11/24 01:20:10;;;;;;;;;;;;;;;;;;5052272;28;19924;-67
2021/11/24 01:22:42;;;;;;;;;;;;;;;;;;5061193;28;19925;-67
2021/11/24 01:25:12;;;;;;;;;;;;;;;;;;5057843;28;19932;-65
2021/11/24 01:27:41;;;;;;;;;;;;;;;;;;5067661;28;19934;-66
2021/11/24 01:30:10;;;;;;;;;;;;;;;;;;5064822;28;19928;-65
2021/11/24 01:32:52;;;;;;;;;;;;;;;;;;5054301;28;20022;-66
2021/11/24 01:35:23;;;;;;;;;;;;;;;;;;5061341;28;19928;-66
2021/11/24 01:37:53;;;;;;;;;;;;;;;;;;5041230;28;19977;-66
2021/11/24 01:40:23;;;;;;;;;;;;;;;;;;5065300;28;19924;-65
2021/11/24 01:42:51;;;;;;;;;;;;;;;;;;5066912;28;19935;-66
2021/11/24 01:45:18;;;;;;;;;;;;;;;;;;5064877;28;20576;-66
2021/11/24 01:47:45;;;;;;;;;;;;;;;;;;5058379;28;19925;-66
2021/11/24 01:50:13;;;;;;;;;;;;;;;;;;5065295;28;19932;-65
2021/11/24 01:52:45;;;;;;;;;;;;;;;;;;5057720;28;20243;-66
2021/11/24 01:55:15;;;;;;;;;;;;;;;;;;5060068;28;19925;-66
2021/11/24 01:57:44;;;;;;;;;;;;;;;;;;5068290;28;19925;-66
2021/11/24 02:00:15;;;;;;;;;;;;;;;;;;5064080;28;19943;-66
2021/11/24 02:02:43;;;;;;;;;;;;;;;;;;5055569;28;20269;-66
2021/11/24 02:05:18;;;;;;;;;;;;;;;;;;5064956;28;19924;-66
2021/11/24 02:07:46;;;;;;;;;;;;;;;;;;5047874;28;19931;-66
2021/11/24 02:10:15;;;;;;;;;;;;;;;;;;5064639;28;19925;-66
2021/11/24 02:12:42;;;;;;;;;;;;;;;;;;5060859;28;19928;-66
2021/11/24 02:15:12;;;;;;;;;;;;;;;;;;5062946;28;19925;-66
2021/11/24 02:17:42;;;;;;;;;;;;;;;;;;5065546;28;19931;-66
2021/11/24 02:20:10;;;;;;;;;;;;;;;;;;5064286;28;19929;-66
2021/11/24 02:22:41;;;;;;;;;;;;;;;;;;5063813;28;19924;-67
2021/11/24 02:25:12;;;;;;;;;;;;;;;;;;5068269;28;19931;-66
2021/11/24 02:27:40;;;;;;;;;;;;;;;;;;5069181;28;19925;-66
2021/11/24 02:30:08;;;;;;;;;;;;;;;;;;5068283;28;19928;-66
2021/11/24 02:32:36;;;;;;;;;;;;;;;;;;5066317;28;20385;-65
2021/11/24 02:35:05;;;;;;;;;;;;;;;;;;5063197;28;19988;-66
2021/11/24 02:37:35;;;;;;;;;;;;;;;;;;5073571;28;19936;-66
2021/11/24 02:40:06;;;;;;;;;;;;;;;;;;5055775;28;20338;-66
2021/11/24 02:42:35;;;;;;;;;;;;;;;;;;5076100;28;19942;-65
2021/11/24 02:45:07;;;;;;;;;;;;;;;;;;5066958;28;19939;-66
2021/11/24 02:47:34;;;;;;;;;;;;;;;;;;5069682;28;19936;-65
2021/11/24 02:50:05;;;;;;;;;;;;;;;;;;5069525;28;19931;-66
2021/11/24 02:52:33;;;;;;;;;;;;;;;;;;5071266;28;19946;-65
2021/11/24 02:55:01;;;;;;;;;;;;;;;;;;5068550;28;19954;-66
2021/11/24 02:57:30;;;;;;;;;;;;;;;;;;5069811;28;19929;-65
2021/11/24 03:00:00;;;;;;;;;;;;;;;;;;5068307;28;19932;-66
2021/11/24 03:02:29;;;;;;;;;;;;;;;;;;5072901;28;20001;-65
2021/11/24 03:04:56;;;;;;;;;;;;;;;;;;5072282;28;19935;-66
2021/11/24 03:07:26;;;;;;;;;;;;;;;;;;5070184;28;19924;-65
2021/11/24 03:09:56;;;;;;;;;;;;;;;;;;5064951;28;19925;-66
2021/11/24 03:12:26;;;;;;;;;;;;;;;;;;5070353;28;19924;-65
2021/11/24 03:14:55;;;;;;;;;;;;;;;;;;5070329;28;19925;-67
2021/11/24 03:17:26;;;;;;;;;;;;;;;;;;5068649;28;19926;-67
2021/11/24 03:19:57;;;;;;;;;;;;;;;;;;5066999;28;19925;-65
2021/11/24 03:22:37;;;;;;;;;;;;;;;;;;5063838;28;19959;-65
2021/11/24 03:25:06;;;;;;;;;;;;;;;;;;5066493;28;20342;-66
2021/11/24 03:27:34;;;;;;;;;;;;;;;;;;5067193;28;20514;-66
2021/11/24 03:30:05;;;;;;;;;;;;;;;;;;5083264;28;20278;-66
2021/11/24 03:32:33;;;;;;;;;;;;;;;;;;5069754;28;19977;-66
2021/11/24 03:35:04;;;;;;;;;;;;;;;;;;5070233;28;19925;-66
2021/11/24 03:37:34;;;;;;;;;;;;;;;;;;5072666;28;19924;-66
2021/11/24 03:40:02;;;;;;;;;;;;;;;;;;5072885;28;19946;-66
2021/11/24 03:42:32;;;;;;;;;;;;;;;;;;5067081;28;20344;-65
2021/11/24 03:45:00;;;;;;;;;;;;;;;;;;5067979;28;19982;-66
2021/11/24 03:47:28;;;;;;;;;;;;;;;;;;5068684;28;19939;-65
2021/11/24 03:49:57;;;;;;;;;;;;;;;;;;5067073;28;19924;-65
2021/11/24 03:52:29;;;;;;;;;;;;;;;;;;5067610;28;19924;-66
2021/11/24 03:54:58;;;;;;;;;;;;;;;;;;5075275;28;19924;-66
2021/11/24 03:57:28;;;;;;;;;;;;;;;;;;5068006;28;19939;-67
2021/11/24 03:59:59;;;;;;;;;;;;;;;;;;5075551;28;19924;-66
2021/11/24 04:02:27;;;;;;;;;;;;;;;;;;5068251;28;20255;-66
2021/11/24 04:04:56;;;;;;;;;;;;;;;;;;5072015;28;19924;-66
2021/11/24 04:07:26;;;;;;;;;;;;;;;;;;5065540;28;19946;-66
2021/11/24 04:09:55;;;;;;;;;;;;;;;;;;5068786;28;20288;-66
2021/11/24 04:12:24;;;;;;;;;;;;;;;;;;5072444;28;19928;-65
2021/11/24 04:14:54;;;;;;;;;;;;;;;;;;5071510;28;19924;-65
2021/11/24 04:17:21;;;;;;;;;;;;;;;;;;5067389;28;19924;-65
2021/11/24 04:19:59;;;;;;;;;;;;;;;;;;5061768;28;20479;-66
2021/11/24 04:22:26;;;;;;;;;;;;;;;;;;5045023;28;19925;-66
2021/11/24 04:24:58;;;;;;;;;;;;;;;;;;5042238;28;19933;-66
2021/11/24 04:27:28;;;;;;;;;;;;;;;;;;5054030;28;19932;-65
2021/11/24 04:29:55;;;;;;;;;;;;;;;;;;5040589;28;19928;-67
2021/11/24 04:32:24;;;;;;;;;;;;;;;;;;5052144;28;19928;-66
2021/11/24 04:34:51;;;;;;;;;;;;;;;;;;5045901;28;19925;-66
2021/11/24 04:37:18;;;;;;;;;;;;;;;;;;5044218;28;19925;-66
2021/11/24 04:39:48;;;;;;;;;;;;;;;;;;5044993;28;19943;-65
2021/11/24 04:42:18;;;;;;;;;;;;;;;;;;5039248;28;20377;-66
2021/11/24 04:44:47;;;;;;;;;;;;;;;;;;5045576;28;20618;-67
2021/11/24 04:47:14;;;;;;;;;;;;;;;;;;5045322;28;19987;-65
2021/11/24 04:49:43;;;;;;;;;;;;;;;;;;5047553;28;20346;-65
2021/11/24 04:52:11;;;;;;;;;;;;;;;;;;5059207;28;19933;-66
2021/11/24 04:54:40;;;;;;;;;;;;;;;;;;5045137;28;20001;-66
2021/11/24 04:57:09;;;;;;;;;;;;;;;;;;5044100;28;19933;-66
2021/11/24 04:59:41;;;;;;;;;;;;;;;;;;5029310;28;19994;-66
2021/11/24 05:02:10;;;;;;;;;;;;;;;;;;5048369;28;19935;-66
2021/11/24 05:04:39;;;;;;;;;;;;;;;;;;5044411;28;19948;-66
2021/11/24 05:07:10;;;;;;;;;;;;;;;;;;5033514;28;19929;-68
2021/11/24 05:09:52;;;;;;;;;;;;;;;;;;5045538;28;20470;-67
2021/11/24 05:12:22;;;;;;;;;;;;;;;;;;5046150;28;19925;-66
2021/11/24 05:14:53;;;;;;;;;;;;;;;;;;5045834;28;20044;-67
2021/11/24 05:17:25;;;;;;;;;;;;;;;;;;5038108;28;19929;-66
2021/11/24 05:19:55;;;;;;;;;;;;;;;;;;5032221;28;19974;-67
2021/11/24 05:22:23;;;;;;;;;;;;;;;;;;5057355;28;19929;-67
2021/11/24 05:24:53;;;;;;;;;;;;;;;;;;5053029;28;20350;-67
2021/11/24 05:27:22;;;;;;;;;;;;;;;;;;5051431;28;19959;-68
2021/11/24 05:29:52;;;;;;;;;;;;;;;;;;5046873;28;20489;-68
2021/11/24 05:32:21;;;;;;;;;;;;;;;;;;5046359;28;19940;-70
2021/11/24 05:34:52;;;;;;;;;;;;;;;;;;5047417;28;19940;-68
2021/11/24 05:37:22;;;;;;;;;;;;;;;;;;5051708;28;19952;-68
2021/11/24 05:39:51;;;;;;;;;;;;;;;;;;5051046;28;19925;-66
2021/11/24 05:42:25;;;;;;;;;;;;;;;;;;5053301;28;19960;-68
2021/11/24 05:45:03;;;;;;;;;;;;;;;;;;5050090;28;20015;-68
2021/11/24 05:50:37;;;;;;;;;;;;;;;;;;5047712;28;19932;-70
2021/11/24 05:53:07;;;;;;;;;;;;;;;;;;5047711;28;20282;-69
2021/11/24 05:55:36;;;;;;;;;;;;;;;;;;5046061;28;20549;-70
2021/11/24 05:58:04;;;;;;;;;;;;;;;;;;5052368;28;20369;-65
2021/11/24 06:00:35;;;;;;;;;;;;;;;;;;5049078;28;20607;-65
2021/11/24 06:03:07;;;;;;;;;;;;;;;;;;5046070;28;19939;-65
2021/11/24 06:05:34;;;;;;;;;;;;;;;;;;5057775;28;19935;-66
2021/11/24 06:08:04;;;;;;;;;;;;;;;;;;5059279;28;19925;-65
2021/11/24 06:10:34;;;;;;;;;;;;;;;;;;5055580;28;20333;-66
2021/11/24 06:13:02;;;;;;;;;;;;;;;;;;5050021;28;19932;-65
2021/11/24 06:15:31;;;;;;;;;;;;;;;;;;5052493;28;19958;-66
2021/11/24 06:18:00;;;;;;;;;;;;;;;;;;5049475;28;20375;-67
2021/11/24 06:20:30;;;;;;;;;;;;;;;;;;5047144;28;19924;-66
2021/11/24 06:23:00;;;;;;;;;;;;;;;;;;5054824;28;19946;-64
2021/11/24 06:25:27;;;;;;;;;;;;;;;;;;5053721;28;19940;-65
2021/11/24 06:27:57;;;;;;;;;;;;;;;;;;5051040;28;19932;-65
2021/11/24 06:30:24;;;;;;;;;;;;;;;;;;5052440;28;19939;-65
2021/11/24 06:32:53;;;;;;;;;;;;;;;;;;5052915;28;20238;-65
2021/11/24 06:35:22;;;;;;;;;;;;;;;;;;5044236;28;19933;-65
2021/11/24 06:37:50;;;;;;;;;;;;;;;;;;5058367;28;19930;-65
2021/11/24 06:40:23;;;;;;;;;;;;;;;;;;5051650;28;19925;-65
2021/11/24 06:42:51;;;;;;;;;;;;;;;;;;5058085;28;20432;-65
2021/11/24 06:45:20;;;;;;;;;;;;;;;;;;5044451;28;19932;-65
2021/11/24 06:47:54;;;;;;;;;;;;;;;;;;5059500;28;19925;-65
2021/11/24 06:50:26;;;;;;;;;;;;;;;;;;5047159;28;19925;-65
2021/11/24 06:52:55;;;;;;;;;;;;;;;;;;5044406;28;19929;-66
2021/11/24 06:55:23;;;;;;;;;;;;;;;;;;5046417;28;19936;-65
2021/11/24 06:57:51;;;;;;;;;;;;;;;;;;5050058;28;19935;-64
2021/11/24 07:00:26;;;;;;;;;;;;;;;;;;5048440;28;19931;-64
2021/11/24 07:03:10;;;;;;;;;;;;;;;;;;5038740;28;19925;-64
2021/11/24 07:05:37;;;;;;;;;;;;;;;;;;5055019;28;19915;-65
2021/11/24 07:08:33;;;;;;;;;;;;;;;;;;5051172;28;19929;-65
2021/11/24 07:11:00;;;;;;;;;;;;;;;;;;5050699;28;19933;-65
2021/11/24 07:13:30;;;;;;;;;;;;;;;;;;5057561;28;19931;-64
2021/11/24 07:16:01;;;;;;;;;;;;;;;;;;5059672;28;20012;-65
2021/11/24 07:18:32;;;;;;;;;;;;;;;;;;5052725;28;19924;-65
2021/11/24 07:21:06;;;;;;;;;;;;;;;;;;5070718;28;19930;-65
2021/11/24 07:23:34;;;;;;;;;;;;;;;;;;5069681;28;20539;-64
2021/11/24 07:26:05;;;;;;;;;;;;;;;;;;5080412;28;19932;-65
2021/11/24 07:28:36;;;;;;;;;;;;;;;;;;5065287;28;19935;-64
2021/11/24 07:31:04;;;;;;;;;;;;;;;;;;5072014;28;19924;-64
2021/11/24 07:33:34;;;;;;;;;;;;;;;;;;5068988;28;20546;-64
2021/11/24 07:36:04;;;;;;;;;;;;;;;;;;5068732;28;19932;-69
2021/11/24 07:38:34;;;;;;;;;;;;;;;;;;5081650;28;20445;-68
2021/11/24 07:41:02;;;;;;;;;;;;;;;;;;5068888;28;19959;-68
2021/11/24 07:43:33;;;;;;;;;;;;;;;;;;5051653;28;19948;-68
2021/11/24 07:46:02;;;;;;;;;;;;;;;;;;5067676;28;19932;-68
2021/11/24 07:48:32;;;;;;;;;;;;;;;;;;5071347;28;19973;-70
2021/11/24 07:51:03;;;;;;;;;;;;;;;;;;5067188;28;19924;-69
2021/11/24 07:53:31;;;;;;;;;;;;;;;;;;5067015;28;19943;-69
2021/11/24 07:56:01;;;;;;;;;;;;;;;;;;5070923;28;19928;-70
2021/11/24 07:58:30;;;;;;;;;;;;;;;;;;5047976;28;19928;-68
2021/11/24 08:01:02;;;;;;;;;;;;;;;;;;5065653;28;20601;-66
2021/11/24 08:03:31;;;;;;;;;;;;;;;;;;5067618;28;19924;-67
2021/11/24 08:06:00;;;;;;;;;;;;;;;;;;5074228;28;20334;-66
2021/11/24 08:08:30;;;;;;;;;;;;;;;;;;5070743;28;19939;-66
2021/11/24 08:10:58;;;;;;;;;;;;;;;;;;5070406;28;19985;-67
2021/11/24 08:13:26;;;;;;;;;;;;;;;;;;5066214;28;19924;-67
2021/11/24 08:15:53;;;;;;;;;;;;;;;;;;5069718;28;19943;-67
2021/11/24 08:18:24;;;;;;;;;;;;;;;;;;5066057;28;19924;-67
2021/11/24 08:21:01;;;;;;;;;;;;;;;;;;5055529;28;19924;-67
2021/11/24 08:23:35;;;;;;;;;;;;;;;;;;5052615;28;19943;-67
2021/11/24 08:26:04;;;;;;;;;;;;;;;;;;5052752;28;19947;-67
2021/11/24 08:28:36;;;;;;;;;;;;;;;;;;5051150;28;19929;-66
2021/11/24 08:31:05;;;;;;;;;;;;;;;;;;5046851;28;19933;-69
2021/11/24 08:33:34;;;;;;;;;;;;;;;;;;5049504;28;19932;-68
2021/11/24 08:36:05;;;;;;;;;;;;;;;;;;5047612;28;19933;-67
2021/11/24 08:38:33;;;;;;;;;;;;;;;;;;5047963;28;19935;-68
2021/11/24 08:41:02;;;;;;;;;;;;;;;;;;5046847;28;19932;-70
2021/11/24 08:43:29;;;;;;;;;;;;;;;;;;5045711;28;19924;-67
2021/11/24 08:46:00;;;;;;;;;;;;;;;;;;5048627;28;20262;-68
2021/11/24 08:48:31;;;;;;;;;;;;;;;;;;5044007;28;19982;-70
2021/11/24 08:50:58;;;;;;;;;;;;;;;;;;5051840;28;19932;-67
2021/11/24 08:53:29;;;;;;;;;;;;;;;;;;5039873;28;20029;-68
2021/11/24 08:56:00;;;;;;;;;;;;;;;;;;5051349;28;19934;-68
2021/11/24 08:58:28;;;;;;;;;;;;;;;;;;5035374;28;19945;-67
2021/11/24 09:00:57;;;;;;;;;;;;;;;;;;5049920;28;19994;-68
2021/11/24 09:03:28;;;;;;;;;;;;;;;;;;5045158;28;19929;-67
2021/11/24 09:05:59;;;;;;;;;;;;;;;;;;5034288;28;20366;-69
2021/11/24 09:08:26;;;;;;;;;;;;;;;;;;5044665;28;19981;-66
2021/11/24 09:11:00;;;;;;;;;;;;;;;;;;5044806;28;19925;-66
2021/11/24 09:13:34;;;;;;;;;;;;;;;;;;5044047;28;19925;-65
2021/11/24 09:16:05;;;;;;;;;;;;;;;;;;5051032;28;20279;-69
2021/11/24 09:18:35;;;;;;;;;;;;;;;;;;5045509;28;19925;-66
2021/11/24 09:21:02;;;;;;;;;;;;;;;;;;5062473;28;19928;-65
2021/11/24 09:23:37;;;;;;;;;;;;;;;;;;5071643;28;19951;-66
2021/11/24 09:28:58;;;;;;;;;;;;;;;;;;5065965;28;20365;-64
2021/11/24 09:31:28;;;;;;;;;;;;;;;;;;5048057;28;19932;-66
2021/11/24 09:33:59;;;;;;;;;;;;;;;;;;5063448;28;20264;-66
2021/11/24 09:36:27;;;;;;;;;;;;;;;;;;5068357;28;19929;-68
2021/11/24 09:38:56;;;;;;;;;;;;;;;;;;5077015;28;19935;-67
2021/11/24 09:41:30;;;;;;;;;;;;;;;;;;5067392;28;19924;-68
2021/11/24 09:43:59;;;;;;;;;;;;;;;;;;5070863;28;19933;-68
2021/11/24 09:46:30;;;;;;;;;;;;;;;;;;5062459;28;19925;-68
2021/11/24 09:49:01;;;;;;;;;;;;;;;;;;5072248;28;20546;-69
2021/11/24 09:51:29;;;;;;;;;;;;;;;;;;5063740;28;19928;-69
2021/11/24 09:53:59;;;;;;;;;;;;;;;;;;5066057;28;20331;-67
2021/11/24 09:56:27;;;;;;;;;;;;;;;;;;5066482;28;20395;-66
2021/11/24 09:59:08;;;;;;;;;;;;;;;;;;5072621;28;19928;-67
2021/11/24 10:01:52;;;;;;;;;;;;;;;;;;5066004;28;19962;-69
2021/11/24 10:04:21;;;;;;;;;;;;;;;;;;5073208;28;19981;-67
2021/11/24 10:07:01;;;;;;;;;;;;;;;;;;5063502;28;19933;-66
2021/11/24 10:09:31;;;;;;;;;;;;;;;;;;5075633;28;20304;-66
2021/11/24 10:12:02;;;;;;;;;;;;;;;;;;5065983;28;19924;-68
2021/11/24 10:14:34;;;;;;;;;;;;;;;;;;5066866;28;19932;-67
2021/11/24 10:17:01;;;;;;;;;;;;;;;;;;5060500;28;19932;-65
2021/11/24 10:19:33;;;;;;;;;;;;;;;;;;5064486;28;19940;-66
2021/11/24 10:22:14;;;;;;;;;;;;;;;;;;5062809;28;19981;-67
2021/11/24 10:24:53;;;;;;;;;;;;;;;;;;5065205;28;19988;-67
2021/11/24 10:27:47;;;;;;;;;;;;;;;;;;5063605;28;19940;-67
2021/11/24 10:30:20;;;;;;;;;;;;;;;;;;5060188;28;19973;-66
2021/11/24 10:32:51;;;;;;;;;;;;;;;;;;5064400;28;19924;-68
2021/11/24 10:35:24;;;;;;;;;;;;;;;;;;5063718;28;19924;-68
2021/11/24 10:38:05;;;;;;;;;;;;;;;;;;5061438;28;19924;-68
2021/11/24 10:40:37;;;;;;;;;;;;;;;;;;5062914;28;19947;-68
2021/11/24 10:43:18;;;;;;;;;;;;;;;;;;5061481;28;20281;-68
2021/11/24 10:45:49;;;;;;;;;;;;;;;;;;5067169;28;19992;-69
2021/11/24 10:48:23;;;;;;;;;;;;;;;;;;5065826;28;20258;-67
2021/11/24 10:50:54;;;;;;;;;;;;;;;;;;5064760;28;19936;-68
2021/11/24 10:53:30;;;;;;;;;;;;;;;;;;5066591;28;19965;-68
2021/11/24 10:56:08;;;;;;;;;;;;;;;;;;5069392;28;19943;-68
2021/11/24 10:58:39;;;;;;;;;;;;;;;;;;5064519;28;19928;-69
2021/11/24 11:01:11;;;;;;;;;;;;;;;;;;5066357;28;19933;-71
2021/11/24 11:03:42;;;;;;;;;;;;;;;;;;5069097;28;19939;-69
2021/11/24 11:06:14;;;;;;;;;;;;;;;;;;5070503;28;19924;-69
2021/11/24 11:08:44;;;;;;;;;;;;;;;;;;5068917;28;19928;-68
2021/11/24 11:11:16;;;;;;;;;;;;;;;;;;5064332;28;19924;-70
2021/11/24 11:13:45;;;;;;;;;;;;;;;;;;5065044;28;20001;-70
2021/11/24 11:16:14;;;;;;;;;;;;;;;;;;5075379;28;19925;-68
2021/11/24 11:18:43;;;;;;;;;;;;;;;;;;5084727;28;20422;-69
2021/11/24 11:21:13;;;;;;;;;;;;;;;;;;5064666;28;19929;-69
2021/11/24 11:23:41;;;;;;;;;;;;;;;;;;5069754;28;19937;-69
2021/11/24 11:26:10;;;;;;;;;;;;;;;;;;5076989;28;19924;-70
2021/11/24 11:28:44;;;;;;;;;;;;;;;;;;5070410;28;19928;-69
2021/11/24 11:31:11;;;;;;;;;;;;;;;;;;5066070;28;19988;-67
2021/11/24 11:33:39;;;;;;;;;;;;;;;;;;5066051;28;19924;-66
2021/11/24 11:36:11;;;;;;;;;;;;;;;;;;5069262;28;20389;-65
2021/11/24 11:38:47;;;;;;;;;;;;;;;;;;5063876;28;20594;-66
2021/11/24 11:41:23;;;;;;;;;;;;;;;;;;5067164;28;19936;-68
2021/11/24 11:44:11;;;;;;;;;;;;;;;;;;5068667;28;20246;-68
2021/11/24 11:47:02;;;;;;;;;;;;;;;;;;5058358;28;19943;-68
2021/11/24 11:50:05;;;;;;;;;;;;;;;;;;5032627;28;19928;-69
2021/11/24 11:52:46;;;;;;;;;;;;;;;;;;5063765;28;19940;-67
2021/11/24 11:55:19;;;;;;;;;;;;;;;;;;5069389;28;19924;-66
2021/11/24 11:57:51;;;;;;;;;;;;;;;;;;5064663;28;19928;-68
2021/11/24 12:00:23;;;;;;;;;;;;;;;;;;5068493;28;19931;-66
2021/11/24 12:02:52;;;;;;;;;;;;;;;;;;5069271;28;19935;-66
2021/11/24 12:05:20;;;;;;;;;;;;;;;;;;5065129;28;19924;-65
2021/11/24 12:07:54;;;;;;;;;;;;;;;;;;5067230;28;20015;-66
2021/11/24 12:10:24;;;;;;;;;;;;;;;;;;5065706;28;19956;-68
2021/11/24 12:12:53;;;;;;;;;;;;;;;;;;5067873;28;20322;-69
2021/11/24 12:15:24;;;;;;;;;;;;;;;;;;5064756;28;19932;-67
2021/11/24 12:17:59;;;;;;;;;;;;;;;;;;5066265;28;20365;-67
2021/11/24 12:20:39;;;;;;;;;;;;;;;;;;5068649;28;20519;-66
2021/11/24 12:23:28;;;;;;;;;;;;;;;;;;5067772;28;20309;-66
2021/11/24 12:26:01;;;;;;;;;;;;;;;;;;5076078;28;19924;-67
2021/11/24 12:28:28;;;;;;;;;;;;;;;;;;5067304;28;19935;-69
2021/11/24 12:31:02;;;;;;;;;;;;;;;;;;5066781;28;19993;-66
2021/11/24 12:33:32;;;;;;;;;;;;;;;;;;5061092;28;19924;-67
2021/11/24 12:36:02;;;;;;;;;;;;;;;;;;5078130;28;20475;-65
2021/11/24 12:38:29;;;;;;;;;;;;;;;;;;5066395;28;20493;-66
2021/11/24 12:40:57;;;;;;;;;;;;;;;;;;5067906;28;19925;-69
2021/11/24 12:43:28;;;;;;;;;;;;;;;;;;5064194;28;19935;-68
2021/11/24 12:46:00;;;;;;;;;;;;;;;;;;5063998;28;20393;-66
2021/11/24 12:48:31;;;;;;;;;;;;;;;;;;5066878;28;19936;-66
2021/11/24 12:51:05;;;;;;;;;;;;;;;;;;5064766;28;19928;-70
2021/11/24 12:53:38;;;;;;;;;;;;;;;;;;5064548;28;19932;-68
2021/11/24 12:56:24;;;;;;;;;;;;;;;;;;5060107;28;20272;-70
2021/11/24 12:58:53;;;;;;;;;;;;;;;;;;5063331;28;19935;-70
2021/11/24 13:01:24;;;;;;;;;;;;;;;;;;5063637;28;20027;-68
2021/11/24 13:03:54;;;;;;;;;;;;;;;;;;5075970;28;19934;-67
2021/11/24 13:06:22;;;;;;;;;;;;;;;;;;5067723;28;20401;-69
2021/11/24 13:08:50;;;;;;;;;;;;;;;;;;5065904;28;19935;-69
2021/11/24 13:11:23;;;;;;;;;;;;;;;;;;5054189;28;20023;-68
2021/11/24 13:13:51;;;;;;;;;;;;;;;;;;5062666;28;20019;-69
2021/11/24 13:16:20;;;;;;;;;;;;;;;;;;5075452;28;20517;-66
2021/11/24 13:18:50;;;;;;;;;;;;;;;;;;5065048;28;20432;-65
2021/11/24 13:21:17;;;;;;;;;;;;;;;;;;5069117;28;20269;-66
2021/11/24 13:23:54;;;;;;;;;;;;;;;;;;5065729;28;19928;-66
2021/11/24 13:26:32;;;;;;;;;;;;;;;;;;5076089;28;19928;-65
2021/11/24 13:29:01;;;;;;;;;;;;;;;;;;5067879;28;19925;-66
2021/11/24 13:31:32;;;;;;;;;;;;;;;;;;5065519;28;19939;-69
2021/11/24 13:34:01;;;;;;;;;;;;;;;;;;5062448;28;19932;-69
2021/11/24 13:36:29;;;;;;;;;;;;;;;;;;5075062;28;20526;-67
2021/11/24 13:39:03;;;;;;;;;;;;;;;;;;5071145;28;20032;-67
2021/11/24 13:41:34;;;;;;;;;;;;;;;;;;5075427;28;19932;-67
2021/11/24 13:44:02;;;;;;;;;;;;;;;;;;5064570;28;19949;-67
2021/11/24 13:46:50;;;;;;;;;;;;;;;;;;5060377;28;19931;-67
2021/11/24 13:49:24;;;;;;;;;;;;;;;;;;5069670;28;19934;-67
2021/11/24 13:51:55;;;;;;;;;;;;;;;;;;5067241;28;19976;-70
2021/11/24 13:54:29;;;;;;;;;;;;;;;;;;5071834;28;19928;-70
2021/11/24 13:57:03;;;;;;;;;;;;;;;;;;5075706;28;19932;-66
2021/11/24 13:59:32;;;;;;;;;;;;;;;;;;5066851;28;19933;-67
2021/11/24 14:02:02;;;;;;;;;;;;;;;;;;5058376;28;20346;-68
2021/11/24 14:04:31;;;;;;;;;;;;;;;;;;5064532;28;19935;-68
2021/11/24 14:07:16;;;;;;;;;;;;;;;;;;5062728;28;19963;-66
2021/11/24 14:09:47;;;;;;;;;;;;;;;;;;5071013;28;19924;-67
2021/11/24 14:12:17;;;;;;;;;;;;;;;;;;5073297;28;19928;-68
2021/11/24 14:14:48;;;;;;;;;;;;;;;;;;5048428;28;19924;-68
2021/11/24 14:17:18;;;;;;;;;;;;;;;;;;5059541;28;19925;-66
2021/11/24 14:20:01;;;;;;;;;;;;;;;;;;5068469;28;19925;-66
2021/11/24 14:22:31;;;;;;;;;;;;;;;;;;5059505;28;19943;-66
2021/11/24 14:25:01;;;;;;;;;;;;;;;;;;5071014;28;19930;-67
2021/11/24 14:27:37;;;;;;;;;;;;;;;;;;5069529;28;19960;-68
2021/11/24 14:30:14;;;;;;;;;;;;;;;;;;5090858;28;19928;-71
2021/11/24 14:32:43;;;;;;;;;;;;;;;;;;5070164;28;19959;-72
2021/11/24 14:35:12;;;;;;;;;;;;;;;;;;5069808;28;19924;-68
2021/11/24 14:37:42;;;;;;;;;;;;;;;;;;5069633;28;20007;-68
2021/11/24 14:40:13;;;;;;;;;;;;;;;;;;5048618;28;20544;-69
2021/11/24 14:42:42;;;;;;;;;;;;;;;;;;5071294;28;19928;-71
2021/11/24 14:45:12;;;;;;;;;;;;;;;;;;5067061;28;19939;-70
2021/11/24 14:47:45;;;;;;;;;;;;;;;;;;5068133;28;19939;-70
2021/11/24 14:50:19;;;;;;;;;;;;;;;;;;5068066;28;19940;-71
2021/11/24 14:52:49;;;;;;;;;;;;;;;;;;5067238;28;19924;-71
2021/11/24 14:55:19;;;;;;;;;;;;;;;;;;5074067;28;19948;-69
2021/11/24 14:57:46;;;;;;;;;;;;;;;;;;5065554;28;19925;-69
2021/11/24 15:00:16;;;;;;;;;;;;;;;;;;5069156;28;19939;-70
2021/11/24 15:02:48;;;;;;;;;;;;;;;;;;5065848;28;19928;-70
2021/11/24 15:05:17;;;;;;;;;;;;;;;;;;5067346;28;19940;-71
2021/11/24 15:07:48;;;;;;;;;;;;;;;;;;5066052;28;19924;-72
2021/11/24 15:10:18;;;;;;;;;;;;;;;;;;5068095;28;20422;-69
2021/11/24 15:13:09;;;;;;;;;;;;;;;;;;5065782;28;19943;-70
2021/11/24 15:15:41;;;;;;;;;;;;;;;;;;5069171;28;19924;-72
2021/11/24 15:18:08;;;;;;;;;;;;;;;;;;5068194;28;19925;-72
2021/11/24 15:20:36;;;;;;;;;;;;;;;;;;5069706;28;19924;-72
2021/11/24 15:23:07;;;;;;;;;;;;;;;;;;5059164;28;19924;-71
2021/11/24 15:25:47;;;;;;;;;;;;;;;;;;5067389;28;19928;-70
2021/11/24 15:28:21;;;;;;;;;;;;;;;;;;5068076;28;19932;-70
2021/11/24 15:30:52;;;;;;;;;;;;;;;;;;5067526;28;19924;-70
2021/11/24 15:33:26;;;;;;;;;;;;;;;;;;5061540;28;20365;-69
2021/11/24 15:35:53;;;;;;;;;;;;;;;;;;5070318;28;19925;-71
2021/11/24 15:38:22;;;;;;;;;;;;;;;;;;5067721;28;19938;-74
2021/11/24 15:40:50;;;;;;;;;;;;;;;;;;5064386;28;19932;-72
2021/11/24 15:43:25;;;;;;;;;;;;;;;;;;5078209;28;20448;-71
2021/11/24 15:45:59;;;;;;;;;;;;;;;;;;5065359;28;19972;-72
2021/11/24 15:48:43;;;;;;;;;;;;;;;;;;5082644;28;20015;-71
2021/11/24 15:51:11;;;;;;;;;;;;;;;;;;5065334;28;19985;-71
2021/11/24 15:53:39;;;;;;;;;;;;;;;;;;5066515;28;19932;-72
2021/11/24 15:56:08;;;;;;;;;;;;;;;;;;5070811;28;20392;-72
2021/11/24 15:58:36;;;;;;;;;;;;;;;;;;5064598;28;19985;-69
2021/11/24 16:01:06;;;;;;;;;;;;;;;;;;5063800;28;19934;-70
2021/11/24 16:03:36;;;;;;;;;;;;;;;;;;5065732;28;19990;-71
2021/11/24 16:06:05;;;;;;;;;;;;;;;;;;5066817;28;19925;-71
2021/11/24 16:08:35;;;;;;;;;;;;;;;;;;5067104;28;20378;-71
2021/11/24 16:11:02;;;;;;;;;;;;;;;;;;5061946;28;19925;-70
2021/11/24 16:13:29;;;;;;;;;;;;;;;;;;5065594;28;20574;-71
2021/11/24 16:16:01;;;;;;;;;;;;;;;;;;5067690;28;19924;-71
2021/11/24 16:18:32;;;;;;;;;;;;;;;;;;5069929;28;20251;-71
2021/11/24 16:21:01;;;;;;;;;;;;;;;;;;5063433;28;19975;-71
2021/11/24 16:23:30;;;;;;;;;;;;;;;;;;5068680;28;19935;-71
2021/11/24 16:26:00;;;;;;;;;;;;;;;;;;5074459;28;19929;-70
2021/11/24 16:28:29;;;;;;;;;;;;;;;;;;5071668;28;19933;-70
2021/11/24 16:31:01;;;;;;;;;;;;;;;;;;5073881;28;19924;-71
2021/11/24 16:33:30;;;;;;;;;;;;;;;;;;5063315;28;19925;-71
2021/11/24 16:35:57;;;;;;;;;;;;;;;;;;5065071;28;19925;-71
2021/11/24 16:38:28;;;;;;;;;;;;;;;;;;5069633;28;20023;-72
2021/11/24 16:41:01;;;;;;;;;;;;;;;;;;5072171;28;20276;-71
2021/11/24 16:43:32;;;;;;;;;;;;;;;;;;5065661;28;19924;-70
2021/11/24 16:46:03;;;;;;;;;;;;;;;;;;5065063;28;19923;-72
2021/11/24 16:48:34;;;;;;;;;;;;;;;;;;5067374;28;20394;-71
2021/11/24 16:51:02;;;;;;;;;;;;;;;;;;5064507;28;19924;-70
2021/11/24 16:53:32;;;;;;;;;;;;;;;;;;5072518;28;19935;-71
2021/11/24 16:56:01;;;;;;;;;;;;;;;;;;5067998;28;19924;-71
2021/11/24 16:58:31;;;;;;;;;;;;;;;;;;5066107;28;20051;-71
2021/11/24 17:01:00;;;;;;;;;;;;;;;;;;5067024;28;19932;-71
2021/11/24 17:03:31;;;;;;;;;;;;;;;;;;5068367;28;19974;-73
2021/11/24 17:06:02;;;;;;;;;;;;;;;;;;5067972;28;19994;-72
2021/11/24 17:08:33;;;;;;;;;;;;;;;;;;5067496;28;19924;-71
2021/11/24 17:11:01;;;;;;;;;;;;;;;;;;5055649;28;19935;-71
2021/11/24 17:13:33;;;;;;;;;;;;;;;;;;5073991;28;19935;-71
2021/11/24 17:16:01;;;;;;;;;;;;;;;;;;5062672;28;19929;-70